Felchville, Vermont
Current Conditions -  °F | °C
As of 1:54 PM on Saturday 20 Dec 2014 (Local Time) from KVSF Reporting Station
Clear Clear  
Wind Chill: -1°   Ceiling: Unl
Heat Index: -1°   Visibility: 10mi
Dew Point: -9°   Wind: 0mph
Humidity: 52%   Direction: NA
Pressure: 30.26"   Gusts: NA
Location:  43.4984°N, 72.5943°W
Report Text: KVSF 201854Z AUTO 00000KT 10SM CLR M01/M09 A3026 RMK AO2 SLP256 T10061094 TSNO
Loading
Personal Weather Stations






























Interactive Weather Map New forecast layout! Learn more

10-Day Weather Forecast

Advertisements
Track Severe Weather on mobile